Time;durP1;ratioP1;P1;durP2;ratioP2;P2;SDS_P1;SDS_P2;PMS_P1;PMS_P2;Temp;Humidity;BMP_temperature;BMP_pressure;BME280_temperature;BME280_humidity;BME280_pressure;Samples;Min_cycle;Max_cycle;Signal;HPM_P1;HPM_P2
2022/01/07 00:00:58;;;;;;;19.85;6.80;;;;;;;2.92;75.92;101300.94;5012422;28;20101;-73
2022/01/07 00:03:23;;;;;;;19.63;7.15;;;;;;;2.93;76.10;101300.88;5009722;28;20022;-73
2022/01/07 00:05:49;;;;;;;19.52;6.22;;;;;;;2.92;76.21;101296.47;4992533;28;20498;-73
2022/01/07 00:08:14;;;;;;;19.17;6.07;;;;;;;2.92;76.48;101287.66;5004032;28;20100;-73
2022/01/07 00:10:40;;;;;;;20.00;6.40;;;;;;;2.91;76.13;101285.91;5016191;28;20378;-73
2022/01/07 00:13:05;;;;;;;18.95;6.45;;;;;;;2.93;77.46;101281.44;5014326;28;20033;-73
2022/01/07 00:15:30;;;;;;;19.20;6.75;;;;;;;2.91;76.50;101280.59;4992158;28;20033;-73
2022/01/07 00:17:56;;;;;;;22.70;6.25;;;;;;;2.89;76.98;101274.50;5010073;28;20029;-73
2022/01/07 00:20:21;;;;;;;20.48;5.68;;;;;;;2.85;77.18;101268.41;4995307;28;20034;-73
2022/01/07 00:22:48;;;;;;;22.02;5.85;;;;;;;2.85;77.49;101262.22;5017986;28;20034;-73
2022/01/07 00:25:14;;;;;;;19.63;5.40;;;;;;;2.84;78.06;101255.19;5010365;28;20037;-73
2022/01/07 00:27:40;;;;;;;17.45;5.43;;;;;;;2.82;77.96;101262.34;5008297;28;20026;-72
2022/01/07 00:30:07;;;;;;;18.10;5.95;;;;;;;2.79;77.87;101253.53;5011875;28;20076;-72
2022/01/07 00:32:32;;;;;;;18.23;5.78;;;;;;;2.80;77.97;101254.44;5015909;28;20057;-72
2022/01/07 00:34:58;;;;;;;16.52;5.57;;;;;;;2.78;78.18;101241.22;4992344;28;20343;-72
2022/01/07 00:37:23;;;;;;;19.85;5.57;;;;;;;2.78;78.86;101240.31;5010496;28;20423;-72
2022/01/07 00:39:49;;;;;;;21.42;6.78;;;;;;;2.74;78.69;101234.28;4992606;28;20288;-73
2022/01/07 00:42:14;;;;;;;18.83;5.30;;;;;;;2.74;79.87;101218.34;4992719;28;20026;-73
2022/01/07 00:44:40;;;;;;;18.63;6.05;;;;;;;2.75;79.45;101217.44;5009799;28;20397;-73
2022/01/07 00:47:05;;;;;;;20.00;6.20;;;;;;;2.73;79.07;101216.59;5011510;28;20366;-72
2022/01/07 00:49:31;;;;;;;17.35;5.60;;;;;;;2.72;80.11;101212.22;5009889;28;20034;-72
2022/01/07 00:51:59;;;;;;;17.17;5.32;;;;;;;2.70;79.71;101205.25;4979924;28;20022;-73
2022/01/07 00:54:24;;;;;;;18.52;5.22;;;;;;;2.69;78.94;101200.84;4997252;28;20535;-73
2022/01/07 00:56:50;;;;;;;19.67;5.85;;;;;;;2.69;78.82;101198.19;5009262;28;20137;-73
2022/01/07 00:59:15;;;;;;;19.48;5.60;;;;;;;2.70;79.79;101189.31;5011485;28;20038;-73
2022/01/07 01:01:40;;;;;;;15.07;4.93;;;;;;;2.71;79.59;101194.56;5009473;28;20056;-73
2022/01/07 01:04:05;;;;;;;17.05;5.35;;;;;;;2.72;79.32;101185.66;4990454;28;20154;-73
2022/01/07 01:06:31;;;;;;;17.52;5.90;;;;;;;2.72;79.12;101177.69;5007735;28;20088;-72
2022/01/07 01:08:56;;;;;;;16.17;4.90;;;;;;;2.74;79.60;101180.34;5000214;28;20029;-72
2022/01/07 01:11:22;;;;;;;15.50;5.05;;;;;;;2.73;79.38;101179.44;4987380;28;20393;-72
2022/01/07 01:13:47;;;;;;;14.13;4.97;;;;;;;2.72;78.85;101169.75;4988131;28;20049;-72
2022/01/07 01:16:12;;;;;;;16.50;4.93;;;;;;;2.72;79.05;101167.09;4991961;28;20034;-72
2022/01/07 01:18:37;;;;;;;13.65;4.65;;;;;;;2.74;78.17;101167.91;4989670;28;20049;-73
2022/01/07 01:21:03;;;;;;;18.35;4.85;;;;;;;2.74;78.79;101162.63;4986613;28;20465;-73
2022/01/07 01:23:28;;;;;;;16.65;4.40;;;;;;;2.76;78.29;101166.06;4988526;28;20038;-73
2022/01/07 01:25:53;;;;;;;20.42;5.10;;;;;;;2.75;78.22;101150.19;4995729;28;20026;-73
2022/01/07 01:28:19;;;;;;;18.95;4.63;;;;;;;2.77;78.87;101149.22;4995835;28;20030;-73
2022/01/07 01:30:44;;;;;;;13.85;4.45;;;;;;;2.80;78.94;101148.25;4990173;28;20372;-73
2022/01/07 01:33:12;;;;;;;16.13;4.90;;;;;;;2.83;78.38;101148.16;4987553;28;20030;-72
2022/01/07 01:35:40;;;;;;;16.63;4.80;;;;;;;2.82;77.63;101145.53;4990049;28;20034;-72
2022/01/07 01:38:06;;;;;;;20.45;5.38;;;;;;;2.80;78.76;101134.97;4988665;28;20030;-72
2022/01/07 01:40:32;;;;;;;17.67;4.90;;;;;;;2.83;78.17;101129.56;4987112;28;20034;-72
2022/01/07 01:42:58;;;;;;;14.32;4.72;;;;;;;2.80;78.14;101125.22;4987618;28;20387;-72
2022/01/07 01:45:24;;;;;;;15.48;4.07;;;;;;;2.82;77.79;101125.16;4992167;28;20033;-72
2022/01/07 01:47:52;;;;;;;21.10;5.32;;;;;;;2.83;77.67;101126.06;4988234;28;20048;-72
2022/01/07 01:50:17;;;;;;;15.07;4.85;;;;;;;2.82;77.83;101114.56;4987446;28;20162;-72
2022/01/07 01:52:50;;;;;;;16.60;4.20;;;;;;;2.84;77.41;101106.53;4974021;28;20234;-73
2022/01/07 01:55:17;;;;;;;19.92;5.38;;;;;;;2.84;78.22;101109.19;4998078;28;20034;-73
2022/01/07 01:57:43;;;;;;;13.45;4.25;;;;;;;2.84;77.81;101102.09;5001745;28;20116;-73
2022/01/07 02:00:12;;;;;;;14.75;3.63;;;;;;;2.86;77.03;101102.03;4989639;28;20130;-75
2022/01/07 02:02:38;;;;;;;14.38;3.90;;;;;;;2.87;77.34;101107.28;4991207;28;20037;-76
2022/01/07 02:05:04;;;;;;;17.80;4.05;;;;;;;2.88;76.71;101102.84;4988023;28;20026;-76
2022/01/07 02:07:34;;;;;;;11.73;3.63;;;;;;;2.89;77.02;101097.47;4986455;28;20096;-76
2022/01/07 02:10:02;;;;;;;12.43;3.38;;;;;;;2.91;77.13;101097.41;4987321;28;20377;-76
2022/01/07 02:12:28;;;;;;;12.82;3.63;;;;;;;2.89;76.75;101086.00;4988512;28;20101;-76
2022/01/07 02:14:57;;;;;;;16.80;3.78;;;;;;;2.90;78.25;101095.69;4987473;28;20022;-76
2022/01/07 02:17:25;;;;;;;12.82;3.83;;;;;;;2.89;77.59;101099.28;4989236;28;20444;-76
2022/01/07 02:19:50;;;;;;;9.43;3.25;;;;;;;2.88;77.31;101094.88;4988493;28;20022;-76
2022/01/07 02:22:17;;;;;;;15.10;4.22;;;;;;;2.88;78.16;101098.38;4986302;28;20030;-76
2022/01/07 02:24:44;;;;;;;9.70;3.15;;;;;;;2.86;78.37;101089.63;4986963;28;20117;-76
2022/01/07 02:27:11;;;;;;;14.20;4.03;;;;;;;2.85;79.88;101089.69;4986951;28;20030;-76
2022/01/07 02:29:37;;;;;;;14.65;3.92;;;;;;;2.80;80.75;101084.56;4988770;28;20048;-76
2022/01/07 02:32:03;;;;;;;14.77;4.15;;;;;;;2.76;81.83;101077.63;4991276;28;20121;-76
2022/01/07 02:34:28;;;;;;;16.33;4.05;;;;;;;2.72;82.47;101078.66;4987699;28;20386;-76
2022/01/07 02:36:53;;;;;;;13.23;4.38;;;;;;;2.69;83.39;101076.97;4988894;28;20145;-76
2022/01/07 02:39:19;;;;;;;15.57;4.43;;;;;;;2.66;83.26;101070.94;4983514;28;20031;-76
2022/01/07 02:41:44;;;;;;;14.88;4.47;;;;;;;2.63;84.08;101077.19;4989957;28;20030;-75
2022/01/07 02:44:10;;;;;;;13.43;3.88;;;;;;;2.62;83.93;101072.81;4989054;28;20037;-75
2022/01/07 02:46:35;;;;;;;13.68;4.05;;;;;;;2.58;84.88;101068.56;4987468;28;20481;-76
2022/01/07 02:49:10;;;;;;;15.02;4.25;;;;;;;2.58;84.94;101071.22;4989445;28;20046;-76
2022/01/07 02:51:36;;;;;;;14.43;4.00;;;;;;;2.55;85.21;101072.19;4978750;28;20088;-75
2022/01/07 02:54:01;;;;;;;15.73;4.32;;;;;;;2.52;85.92;101068.75;4985503;28;20450;-75
2022/01/07 02:56:27;;;;;;;12.23;3.97;;;;;;;2.50;85.61;101063.50;4987702;28;20101;-75
2022/01/07 02:58:52;;;;;;;14.90;4.38;;;;;;;2.49;86.25;101071.53;4987049;28;20038;-75
2022/01/07 03:01:17;;;;;;;16.02;4.28;;;;;;;2.47;86.77;101057.47;4991490;28;20075;-75
2022/01/07 03:03:42;;;;;;;17.05;3.88;;;;;;;2.43;88.07;101060.22;4987996;28;20493;-75
2022/01/07 03:06:08;;;;;;;15.90;4.78;;;;;;;2.37;87.75;101049.84;4986356;28;20058;-75
2022/01/07 03:08:33;;;;;;;15.52;4.55;;;;;;;2.35;88.60;101050.81;4987769;28;20030;-75
2022/01/07 03:10:58;;;;;;;15.07;4.38;;;;;;;2.29;88.70;101043.94;5002694;28;20084;-75
2022/01/07 03:13:24;;;;;;;16.75;3.92;;;;;;;2.24;89.15;101049.41;4990525;28;20108;-75
2022/01/07 03:15:49;;;;;;;14.15;4.70;;;;;;;2.20;89.34;101038.97;5007732;28;20034;-75
2022/01/07 03:18:14;;;;;;;17.20;5.18;;;;;;;2.14;89.57;101041.81;5007463;28;20045;-75
2022/01/07 03:20:40;;;;;;;14.43;4.00;;;;;;;2.06;89.53;101027.03;5007330;28;21106;-75
2022/01/07 03:23:07;;;;;;;14.60;4.22;;;;;;;2.06;90.15;101027.03;5005593;28;20033;-75
2022/01/07 03:25:33;;;;;;;16.48;4.38;;;;;;;2.05;90.36;101020.03;5000466;28;20030;-75
2022/01/07 03:27:58;;;;;;;16.48;4.60;;;;;;;2.08;90.32;101021.72;5007425;28;20132;-75
2022/01/07 03:30:24;;;;;;;15.02;4.05;;;;;;;2.05;90.14;101017.38;5014015;28;20115;-75
2022/01/07 03:32:49;;;;;;;18.67;4.22;;;;;;;2.04;90.54;101025.38;5004556;28;20030;-75
2022/01/07 03:35:16;;;;;;;17.15;4.35;;;;;;;2.04;90.34;101017.44;4992573;28;20037;-75
2022/01/07 03:37:42;;;;;;;15.02;4.13;;;;;;;2.06;90.82;101024.38;5009708;28;20447;-75
2022/01/07 03:40:09;;;;;;;14.27;4.93;;;;;;;2.06;90.85;101015.56;5010711;28;20045;-75
2022/01/07 03:42:34;;;;;;;17.23;4.78;;;;;;;2.04;91.52;101010.34;4993939;28;20033;-75
2022/01/07 03:45:00;;;;;;;15.68;4.70;;;;;;;2.07;91.85;101012.88;5017284;28;20025;-75
2022/01/07 03:47:26;;;;;;;17.10;4.90;;;;;;;2.04;91.87;101007.69;5016562;28;20108;-76
2022/01/07 03:49:51;;;;;;;17.27;4.88;;;;;;;2.05;91.87;101008.53;4992745;28;20060;-75
2022/01/07 03:52:17;;;;;;;14.60;4.18;;;;;;;2.03;91.95;101007.75;4994733;28;20164;-75
2022/01/07 03:54:43;;;;;;;18.10;4.97;;;;;;;2.05;92.45;100998.81;5011224;28;20025;-75
2022/01/07 03:57:09;;;;;;;16.88;4.38;;;;;;;2.09;92.33;100999.56;5008476;28;20030;-75
2022/01/07 03:59:34;;;;;;;16.40;5.03;;;;;;;2.08;92.49;101000.50;5011155;28;20037;-75
2022/01/07 04:02:00;;;;;;;15.48;4.38;;;;;;;2.08;92.43;100996.06;5015440;28;20064;-75
2022/01/07 04:04:25;;;;;;;17.92;4.88;;;;;;;2.11;92.89;100984.47;5002288;28;20037;-75
2022/01/07 04:06:50;;;;;;;18.88;5.57;;;;;;;2.12;92.30;100988.00;5010180;28;20116;-76
2022/01/07 04:09:15;;;;;;;15.23;4.22;;;;;;;2.09;92.67;100979.25;4992381;28;20033;-76
2022/01/07 04:11:41;;;;;;;17.17;4.50;;;;;;;2.12;92.88;100974.72;5010772;28;20117;-76
2022/01/07 04:14:06;;;;;;;12.90;4.00;;;;;;;2.12;92.46;100977.38;5010544;28;20461;-76
2022/01/07 04:16:31;;;;;;;16.80;4.50;;;;;;;2.11;92.98;100976.53;5010186;28;20033;-76
2022/01/07 04:18:56;;;;;;;12.32;4.03;;;;;;;2.09;93.46;100970.41;4992186;28;20402;-76
2022/01/07 04:21:22;;;;;;;11.98;3.75;;;;;;;2.12;93.55;100975.59;5007368;28;20080;-76
2022/01/07 04:23:47;;;;;;;10.30;3.45;;;;;;;2.14;93.29;100978.19;5002647;28;20041;-76
2022/01/07 04:26:12;;;;;;;16.58;4.43;;;;;;;2.17;92.98;100980.75;5010826;28;20382;-76
2022/01/07 04:28:38;;;;;;;14.75;4.32;;;;;;;2.20;93.66;100977.97;4992312;28;20025;-76
2022/01/07 04:31:03;;;;;;;14.82;3.95;;;;;;;2.22;93.64;100982.28;5014129;28;20018;-76
2022/01/07 04:33:32;;;;;;;18.08;4.30;;;;;;;2.26;93.59;100977.75;4991861;28;20034;-76
2022/01/07 04:35:58;;;;;;;12.93;4.40;;;;;;;2.29;94.07;100982.94;5008639;28;20087;-76
2022/01/07 04:38:24;;;;;;;15.15;4.43;;;;;;;2.32;94.01;100976.66;5010215;28;20057;-76
2022/01/07 04:40:49;;;;;;;15.27;4.53;;;;;;;2.34;93.61;100986.28;4993614;28;20049;-76
2022/01/07 04:43:15;;;;;;;15.30;5.55;;;;;;;2.36;93.75;100983.59;5010321;28;20041;-76
2022/01/07 04:45:40;;;;;;;21.73;6.03;;;;;;;2.38;93.90;100981.75;5009870;28;20366;-76
2022/01/07 04:48:05;;;;;;;13.27;4.38;;;;;;;2.41;93.76;100978.97;5010390;28;20049;-76
2022/01/07 04:50:31;;;;;;;12.55;4.93;;;;;;;2.43;93.77;100972.69;4994593;28;20108;-76
2022/01/07 04:52:56;;;;;;;13.98;5.03;;;;;;;2.44;94.04;100982.34;4982567;28;20033;-76
2022/01/07 04:55:24;;;;;;;13.98;4.55;;;;;;;2.45;93.64;100965.53;4995257;28;20470;-76
2022/01/07 04:57:50;;;;;;;14.55;4.68;;;;;;;2.48;93.99;100976.97;5010249;28;20022;-76
2022/01/07 05:00:18;;;;;;;16.88;4.90;;;;;;;2.48;94.10;100966.34;5012004;28;20280;-76
2022/01/07 05:02:43;;;;;;;15.45;5.35;;;;;;;2.50;93.69;100962.69;5011735;28;20073;-76
2022/01/07 05:05:09;;;;;;;15.55;4.57;;;;;;;2.51;93.91;100951.16;4991706;28;20666;-76
2022/01/07 05:07:36;;;;;;;16.85;5.50;;;;;;;2.52;94.25;100957.31;4990852;28;20029;-76
2022/01/07 05:10:06;;;;;;;14.88;4.95;;;;;;;2.51;94.40;100952.97;4991488;28;20049;-76
2022/01/07 05:12:32;;;;;;;18.25;5.78;;;;;;;2.52;94.29;100941.41;5006207;28;20139;-76
2022/01/07 05:14:57;;;;;;;14.00;5.07;;;;;;;2.53;94.19;100943.16;5008929;28;20069;-76
2022/01/07 05:17:23;;;;;;;15.73;4.88;;;;;;;2.54;94.43;100934.28;4990766;28;20041;-76
2022/01/07 05:19:48;;;;;;;16.75;5.60;;;;;;;2.54;94.43;100931.63;4991533;28;20130;-76
2022/01/07 05:22:13;;;;;;;12.90;4.70;;;;;;;2.56;94.40;100937.72;5014684;28;20577;-76
2022/01/07 05:24:39;;;;;;;14.32;5.03;;;;;;;2.55;94.58;100936.88;4990733;28;20029;-76
2022/01/07 05:27:04;;;;;;;16.08;5.03;;;;;;;2.57;94.90;100939.47;5008537;28;20030;-76
2022/01/07 05:29:33;;;;;;;17.15;5.60;;;;;;;2.59;94.72;100946.44;5009217;28;20033;-76
2022/01/07 05:31:58;;;;;;;19.05;6.45;;;;;;;2.60;94.96;100931.38;5008594;28;20104;-76
2022/01/07 05:34:24;;;;;;;18.15;6.03;;;;;;;2.62;94.62;100943.66;4988070;28;20129;-76
2022/01/07 05:36:49;;;;;;;16.92;6.30;;;;;;;2.66;94.72;100935.59;5008904;28;20504;-76
2022/01/07 05:39:14;;;;;;;16.90;5.72;;;;;;;2.68;95.03;100942.56;5009331;28;20061;-76
2022/01/07 05:41:39;;;;;;;16.40;5.40;;;;;;;2.69;94.80;100928.34;5009175;28;20033;-76
2022/01/07 05:44:05;;;;;;;16.48;5.80;;;;;;;2.72;94.50;100933.53;4990735;28;20022;-76
2022/01/07 05:46:30;;;;;;;21.85;7.35;;;;;;;2.73;94.78;100937.09;4990847;28;20038;-76
2022/01/07 05:48:56;;;;;;;16.23;6.05;;;;;;;2.73;94.85;100932.63;4990851;28;20116;-76
2022/01/07 05:51:21;;;;;;;17.55;6.15;;;;;;;2.74;95.04;100930.84;4978153;28;20049;-76
2022/01/07 05:53:46;;;;;;;16.58;5.82;;;;;;;2.74;94.89;100926.41;4992393;28;20500;-76
2022/01/07 05:56:11;;;;;;;18.23;6.30;;;;;;;2.76;94.79;100929.00;4990337;28;20022;-76
2022/01/07 05:58:37;;;;;;;19.98;6.10;;;;;;;2.77;94.99;100920.97;5008534;28;20064;-76
2022/01/07 06:01:04;;;;;;;18.50;6.78;;;;;;;2.78;94.40;100917.41;4989334;28;20021;-76
2022/01/07 06:03:30;;;;;;;17.55;6.10;;;;;;;2.80;94.98;100920.00;5008189;28;20042;-76
2022/01/07 06:05:55;;;;;;;20.08;6.88;;;;;;;2.82;94.51;100922.59;4990464;28;20464;-76
2022/01/07 06:08:20;;;;;;;18.55;5.90;;;;;;;2.83;94.49;100922.53;5008168;28;20033;-76
2022/01/07 06:10:45;;;;;;;18.70;6.60;;;;;;;2.85;94.39;100927.75;5007816;28;20038;-76
2022/01/07 06:13:11;;;;;;;21.40;6.82;;;;;;;2.86;94.51;100926.84;5009418;28;20026;-76
2022/01/07 06:15:36;;;;;;;16.23;6.30;;;;;;;2.88;94.76;100935.59;5007707;28;20279;-76
2022/01/07 06:18:05;;;;;;;17.08;6.10;;;;;;;2.89;94.93;100930.22;5006778;28;20470;-76
2022/01/07 06:20:30;;;;;;;16.88;5.65;;;;;;;2.90;94.23;100931.97;4988755;28;20577;-76
2022/01/07 06:22:56;;;;;;;17.52;6.75;;;;;;;2.91;94.40;100938.13;5007492;28;20046;-76
2022/01/07 06:25:21;;;;;;;19.00;6.47;;;;;;;2.94;94.77;100928.28;5009421;28;20410;-76
2022/01/07 06:27:46;;;;;;;19.73;6.78;;;;;;;2.94;94.41;100930.94;5007722;28;20061;-76
2022/01/07 06:30:12;;;;;;;23.30;6.38;;;;;;;2.97;94.41;100930.81;5007280;28;20411;-76
2022/01/07 06:32:37;;;;;;;17.98;7.60;;;;;;;2.96;94.40;100937.03;5006414;28;20029;-76
2022/01/07 06:35:03;;;;;;;21.67;7.05;;;;;;;2.97;94.61;100927.25;4991195;28;20052;-76
2022/01/07 06:37:28;;;;;;;20.15;6.85;;;;;;;2.98;94.66;100926.34;5007288;28;20029;-76
2022/01/07 06:39:54;;;;;;;19.73;7.10;;;;;;;3.00;94.43;100927.13;4991368;28;20100;-76
2022/01/07 06:42:20;;;;;;;18.27;7.35;;;;;;;3.01;94.36;100931.53;4990966;28;20045;-76
2022/01/07 06:44:45;;;;;;;16.90;6.57;;;;;;;3.02;94.50;100930.59;5006623;28;20033;-76
2022/01/07 06:47:10;;;;;;;21.90;7.35;;;;;;;3.01;94.09;100918.25;4989380;28;20033;-76
2022/01/07 06:49:35;;;;;;;22.58;7.40;;;;;;;3.07;94.36;100927.75;5007219;28;20061;-78
2022/01/07 06:52:01;;;;;;;18.70;6.55;;;;;;;3.09;93.89;100926.78;4994995;28;20153;-76
2022/01/07 06:54:27;;;;;;;19.67;6.32;;;;;;;3.09;94.00;100929.44;5019146;28;20030;-76
2022/01/07 06:56:53;;;;;;;22.40;8.10;;;;;;;3.10;93.71;100927.63;4990927;28;20041;-77
2022/01/07 06:59:19;;;;;;;22.00;6.95;;;;;;;3.11;94.08;100924.91;5007336;28;20489;-76
2022/01/07 07:01:47;;;;;;;20.55;7.88;;;;;;;3.12;94.07;100920.47;5007446;28;20034;-77
2022/01/07 07:04:13;;;;;;;19.98;7.20;;;;;;;3.11;94.12;100914.28;5016369;28;20085;-76
2022/01/07 07:06:38;;;;;;;19.73;7.68;;;;;;;3.14;93.95;100929.25;5011074;28;20041;-76
2022/01/07 07:09:04;;;;;;;19.17;6.70;;;;;;;3.18;94.31;100925.53;5012307;28;20033;-76
2022/01/07 07:11:30;;;;;;;18.27;7.40;;;;;;;3.19;94.34;100924.59;4994071;28;20140;-76
2022/01/07 07:13:55;;;;;;;20.65;8.05;;;;;;;3.23;93.93;100930.66;5013737;28;20482;-76
2022/01/07 07:16:21;;;;;;;16.60;6.15;;;;;;;3.22;93.79;100927.16;5012212;28;20088;-77
2022/01/07 07:18:47;;;;;;;20.35;8.20;;;;;;;3.25;93.98;100924.34;5012347;28;20038;-77
2022/01/07 07:21:12;;;;;;;20.52;7.95;;;;;;;3.26;94.15;100930.53;5007873;28;20033;-77
2022/01/07 07:23:37;;;;;;;22.83;7.90;;;;;;;3.28;94.10;100932.19;4995271;28;20033;-77
2022/01/07 07:26:03;;;;;;;19.20;8.13;;;;;;;3.31;93.58;100939.19;5019731;28;20025;-77
2022/01/07 07:28:28;;;;;;;22.02;8.38;;;;;;;3.32;93.33;100938.22;5005225;28;20690;-76
2022/01/07 07:30:57;;;;;;;23.02;8.13;;;;;;;3.31;93.59;100937.38;4996254;28;20036;-77
2022/01/07 07:38:42;;;;;;;23.13;7.65;;;;;;;3.38;93.67;100942.44;5011030;28;20160;-76
2022/01/07 07:41:10;;;;;;;21.52;8.23;;;;;;;3.36;93.80;100934.53;5012075;28;20480;-77
2022/01/07 07:43:36;;;;;;;18.75;7.28;;;;;;;3.41;93.77;100931.66;5011137;28;20041;-76
2022/01/07 07:46:03;;;;;;;21.55;7.93;;;;;;;3.39;94.08;100926.41;4994364;28;20057;-77
2022/01/07 07:48:29;;;;;;;21.90;8.65;;;;;;;3.43;93.62;100920.06;5023818;28;20029;-77
2022/01/07 07:50:55;;;;;;;22.38;7.63;;;;;;;3.43;93.52;100912.09;5014843;28;20041;-76
2022/01/07 07:53:20;;;;;;;20.60;6.57;;;;;;;3.44;93.40;100921.78;4990858;28;20041;-77
2022/01/07 07:55:51;;;;;;;20.92;8.20;;;;;;;3.46;93.80;100924.38;5011729;28;20038;-77
2022/01/07 07:58:16;;;;;;;20.15;8.20;;;;;;;3.46;93.86;100924.38;4992375;28;20030;-76
2022/01/07 08:00:42;;;;;;;18.42;7.35;;;;;;;3.49;93.45;100934.88;5001833;28;20030;-76
2022/01/07 08:03:07;;;;;;;19.83;7.70;;;;;;;3.51;93.70;100938.31;4992505;28;20081;-76
2022/01/07 08:05:32;;;;;;;20.27;8.18;;;;;;;3.53;93.37;100928.50;4992605;28;20117;-76
2022/01/07 08:08:02;;;;;;;23.33;8.38;;;;;;;3.54;93.33;100932.03;5000584;28;20458;-76
2022/01/07 08:10:27;;;;;;;19.10;8.05;;;;;;;3.56;93.28;100923.06;4992844;28;20092;-77
2022/01/07 08:18:14;;;;;;;23.27;8.55;;;;;;;3.58;93.27;100920.34;5010387;28;20536;-77
2022/01/07 08:20:40;;;;;;;20.33;7.63;;;;;;;3.59;93.31;100912.28;4995036;28;20434;-77
2022/01/07 08:23:05;;;;;;;22.63;7.47;;;;;;;3.58;93.24;100909.69;4990521;28;20029;-77
2022/01/07 08:25:32;;;;;;;21.05;7.63;;;;;;;3.58;93.45;100910.56;5004456;28;20122;-76
2022/01/07 08:28:01;;;;;;;21.50;8.20;;;;;;;3.58;93.45;100902.59;5014259;28;20029;-76
2022/01/07 08:30:29;;;;;;;21.42;7.68;;;;;;;3.57;92.95;100903.50;5013260;28;20064;-76
2022/01/07 08:35:38;;;;;;;22.98;9.07;;;;;;;3.57;93.14;100902.66;5007390;28;20036;-77
2022/01/07 08:38:05;;;;;;;23.42;8.90;;;;;;;3.59;92.96;100914.94;4996483;28;20113;-76
2022/01/07 08:40:30;;;;;;;19.95;8.15;;;;;;;3.59;93.51;100914.09;4992259;28;20025;-76
2022/01/07 08:42:55;;;;;;;20.45;7.22;;;;;;;3.59;93.46;100904.31;5013666;28;20094;-77
2022/01/07 08:45:21;;;;;;;21.50;8.20;;;;;;;3.64;93.34;100920.06;5006941;28;20515;-77
2022/01/07 08:47:46;;;;;;;19.98;7.78;;;;;;;3.66;93.00;100915.53;5008291;28;20113;-77
2022/01/07 08:50:12;;;;;;;27.33;8.10;;;;;;;3.67;92.98;100914.59;4999224;28;20050;-76
2022/01/07 08:52:37;;;;;;;18.58;7.22;;;;;;;3.70;93.38;100918.94;4976216;28;20033;-77
2022/01/07 08:55:03;;;;;;;18.17;7.22;;;;;;;3.71;92.70;100923.34;5009548;28;20114;-77
2022/01/07 08:57:28;;;;;;;21.70;7.70;;;;;;;3.72;92.97;100923.25;4993710;28;20025;-77
2022/01/07 08:59:53;;;;;;;22.88;8.63;;;;;;;3.74;92.74;100928.50;5008464;28;20391;-77
2022/01/07 09:02:19;;;;;;;22.35;8.55;;;;;;;3.74;93.23;100929.38;4989322;28;20034;-77
2022/01/07 09:04:44;;;;;;;20.88;7.97;;;;;;;3.74;92.77;100921.38;5008372;28;20029;-77
2022/01/07 09:07:09;;;;;;;19.27;7.78;;;;;;;3.74;92.53;100923.19;5005422;28;20042;-77
2022/01/07 09:09:35;;;;;;;20.02;7.20;;;;;;;3.75;92.85;100924.91;5006729;28;20691;-76
2022/01/07 09:12:00;;;;;;;20.75;8.13;;;;;;;3.73;92.41;100922.31;5006522;28;20048;-77
2022/01/07 09:14:25;;;;;;;23.50;8.25;;;;;;;3.73;92.76;100917.00;4987234;28;20056;-76
2022/01/07 09:16:51;;;;;;;21.60;7.30;;;;;;;3.75;93.21;100930.22;5008503;28;20024;-76
2022/01/07 09:19:16;;;;;;;22.35;6.78;;;;;;;3.75;92.83;100922.25;4989983;28;20033;-76
2022/01/07 09:21:41;;;;;;;18.70;7.13;;;;;;;3.74;92.67;100926.69;4990051;28;20120;-76
2022/01/07 09:24:07;;;;;;;19.70;7.32;;;;;;;3.74;93.10;100916.06;5013138;28;20034;-77
2022/01/07 09:26:33;;;;;;;19.80;6.80;;;;;;;3.76;92.60;100910.69;4990124;28;20049;-77
2022/01/07 09:28:59;;;;;;;21.13;7.78;;;;;;;3.77;92.86;100918.59;5008486;28;20033;-76
2022/01/07 09:31:24;;;;;;;20.15;7.20;;;;;;;3.82;92.61;100918.38;5001105;28;20604;-77
2022/01/07 09:33:50;;;;;;;19.38;6.82;;;;;;;3.85;92.76;100915.59;5027965;28;20033;-76
2022/01/07 09:36:15;;;;;;;19.92;7.45;;;;;;;3.89;92.52;100914.53;5010341;28;20470;-76
2022/01/07 09:38:40;;;;;;;22.55;8.90;;;;;;;3.94;91.95;100906.34;5015368;28;20543;-76
2022/01/07 09:41:07;;;;;;;19.40;7.03;;;;;;;3.95;92.31;100906.31;5029113;28;20017;-76
2022/01/07 09:43:32;;;;;;;19.80;7.20;;;;;;;3.97;92.25;100914.22;5029076;28;20402;-76
2022/01/07 09:45:57;;;;;;;18.85;7.30;;;;;;;4.00;92.39;100920.25;5020132;28;20018;-76
2022/01/07 09:48:23;;;;;;;19.98;6.35;;;;;;;4.05;92.05;100920.03;5009248;28;20029;-76
2022/01/07 09:50:48;;;;;;;23.42;6.60;;;;;;;4.09;91.31;100918.97;4991036;28;20544;-76
2022/01/07 09:53:15;;;;;;;18.38;6.72;;;;;;;4.14;91.27;100911.66;4977893;28;20038;-76
2022/01/07 09:55:42;;;;;;;21.10;7.65;;;;;;;4.19;91.68;100909.63;5010830;28;20741;-76
2022/01/07 09:58:09;;;;;;;19.27;6.38;;;;;;;4.24;91.33;100905.91;5007344;28;20172;-76
2022/01/07 10:00:39;;;;;;;19.00;7.18;;;;;;;4.23;90.46;100904.16;4989764;28;20200;-76
2022/01/07 10:03:07;;;;;;;19.02;6.30;;;;;;;4.24;90.09;100908.56;5007382;28;20038;-76
2022/01/07 10:05:42;;;;;;;16.55;5.72;;;;;;;4.25;90.31;100904.97;5011055;28;20029;-76
2022/01/07 10:08:22;;;;;;;20.50;6.15;;;;;;;4.28;90.19;100905.69;5027936;28;20026;-76
2022/01/07 10:11:07;;;;;;;18.15;6.53;;;;;;;4.29;90.46;100906.53;5006948;28;20053;-76
2022/01/07 10:13:32;;;;;;;17.80;6.43;;;;;;;4.29;90.37;100898.56;5005732;28;20030;-76
2022/01/07 10:16:17;;;;;;;20.05;6.63;;;;;;;4.30;90.23;100892.31;5015446;28;20025;-76
2022/01/07 10:18:43;;;;;;;18.63;5.82;;;;;;;4.30;89.33;100895.81;5009060;28;20033;-76
2022/01/07 10:21:10;;;;;;;17.80;5.63;;;;;;;4.33;89.56;100909.00;4988985;28;20022;-76
2022/01/07 10:23:36;;;;;;;19.98;6.75;;;;;;;4.36;89.47;100907.97;5014232;28;20040;-76
2022/01/07 10:26:01;;;;;;;20.08;6.47;;;;;;;4.38;89.49;100898.16;4996103;28;20037;-76
2022/01/07 10:28:32;;;;;;;16.08;6.57;;;;;;;4.41;89.80;100892.69;5021030;28;20376;-76
2022/01/07 10:31:02;;;;;;;19.95;6.22;;;;;;;4.42;89.63;100875.75;4996804;28;20125;-76
2022/01/07 10:33:35;;;;;;;19.63;6.40;;;;;;;4.44;89.80;100873.91;5003488;28;20068;-76
2022/01/07 10:36:06;;;;;;;18.73;6.00;;;;;;;4.46;89.58;100881.81;5013729;28;20049;-76
2022/01/07 10:38:33;;;;;;;15.68;5.45;;;;;;;4.50;89.23;100891.38;5002881;28;20105;-76
2022/01/07 10:40:59;;;;;;;19.38;6.45;;;;;;;4.52;89.03;100885.06;5010473;28;20032;-76
2022/01/07 10:43:34;;;;;;;22.67;5.93;;;;;;;4.56;88.49;100883.09;5014189;28;20033;-76
2022/01/07 10:46:00;;;;;;;15.13;5.28;;;;;;;4.64;88.91;100866.75;5002316;28;20207;-76
2022/01/07 10:48:38;;;;;;;17.00;6.38;;;;;;;4.68;88.52;100869.19;5015892;28;20068;-76
2022/01/07 10:51:10;;;;;;;19.38;5.75;;;;;;;4.72;nan;100875.25;5002758;28;20116;-76
2022/01/07 10:53:37;;;;;;;18.23;6.07;;;;;;;4.75;88.61;100872.44;5008329;28;20045;-76
2022/01/07 10:56:13;;;;;;;18.60;5.72;;;;;;;4.78;87.88;100874.94;5026177;28;20554;-76
2022/01/07 10:58:57;;;;;;;16.40;5.45;;;;;;;4.80;87.83;100872.19;5017577;28;20024;-76
2022/01/07 11:01:26;;;;;;;19.40;6.47;;;;;;;4.84;88.67;100873.78;5008162;28;20528;-76
2022/01/07 11:03:54;;;;;;;21.97;5.93;;;;;;;4.88;88.29;100864.72;4990336;28;20068;-76
2022/01/07 11:06:20;;;;;;;18.27;5.82;;;;;;;4.92;87.30;100868.06;4991450;28;20054;-77
2022/01/07 11:08:48;;;;;;;16.52;5.78;;;;;;;4.98;88.24;100865.97;5014978;28;20032;-76
2022/01/07 11:11:13;;;;;;;15.45;5.40;;;;;;;5.09;88.66;100865.44;5008151;28;20049;-76
2022/01/07 11:13:41;;;;;;;20.05;6.20;;;;;;;5.19;88.07;100866.69;5007848;28;20036;-76
2022/01/07 11:16:06;;;;;;;17.35;5.28;;;;;;;5.25;87.93;100868.19;5011143;28;20041;-76
2022/01/07 11:18:35;;;;;;;18.98;5.97;;;;;;;5.24;86.87;100864.66;4997566;28;20391;-76
2022/01/07 11:21:02;;;;;;;19.75;6.10;;;;;;;5.21;86.89;100883.47;5007633;28;20029;-76
2022/01/07 11:23:29;;;;;;;17.20;4.50;;;;;;;5.16;87.75;100874.84;5006943;28;20022;-76
2022/01/07 11:26:02;;;;;;;14.85;5.55;;;;;;;5.14;88.40;100876.72;4985991;28;20025;-76
2022/01/07 11:28:27;;;;;;;15.75;5.63;;;;;;;5.11;88.07;100866.22;4987298;28;20895;-76
2022/01/07 11:31:20;;;;;;;16.15;5.13;;;;;;;5.13;88.69;100868.81;4990299;28;20031;-76
2022/01/07 11:33:45;;;;;;;18.27;5.40;;;;;;;5.14;88.09;100870.53;4987642;28;20105;-76